Time;durP1;ratioP1;P1;durP2;ratioP2;P2;SDS_P1;SDS_P2;PMS_P1;PMS_P2;Temp;Humidity;BMP_temperature;BMP_pressure;BME280_temperature;BME280_humidity;BME280_pressure;Samples;Min_cycle;Max_cycle;Signal;HPM_P1;HPM_P2
2022/04/02 00:02:29;;;;;;;7.93;3.87;;;;;;;0.53;73.08;101347.03;5256908;28;20162;-76
2022/04/02 00:05:00;;;;;;;6.00;3.50;;;;;;;0.54;73.33;101351.38;5228684;28;1100668;-76
2022/04/02 00:07:32;;;;;;;16.83;7.07;;;;;;;0.57;73.35;101351.50;5278349;28;20032;-77
2022/04/02 00:10:05;;;;;;;40.50;25.20;;;;;;;0.56;73.50;101352.28;5268659;28;20104;-75
2022/04/02 00:12:36;;;;;;;21.20;12.63;;;;;;;0.57;73.84;101348.06;5257694;28;20028;-75
2022/04/02 00:15:08;;;;;;;7.53;3.57;;;;;;;0.58;73.53;101355.81;5257813;28;20037;-77
2022/04/02 00:17:39;;;;;;;23.77;14.73;;;;;;;0.61;73.21;101360.16;5257830;28;20028;-77
2022/04/02 00:20:11;;;;;;;11.73;8.13;;;;;;;0.59;73.87;101354.97;5266356;28;20039;-75
2022/04/02 00:23:35;;;;;;;9.03;5.57;;;;;;;0.58;72.84;101360.03;5277371;28;20032;-78
2022/04/02 00:25:34;;;;;;;11.43;6.95;;;;;;;0.59;73.48;101367.81;5278017;28;20047;-77
2022/04/02 00:28:05;;;;;;;13.00;6.10;;;;;;;0.57;73.10;101360.88;5272766;28;20365;-75
2022/04/02 00:30:36;;;;;;;19.80;11.70;;;;;;;0.58;72.81;101360.94;5257545;28;20052;-72
2022/04/02 00:33:08;;;;;;;12.07;7.23;;;;;;;0.57;73.21;101358.31;5261960;28;20020;-75
2022/04/02 00:35:39;;;;;;;6.80;4.53;;;;;;;0.52;73.50;101353.03;5277623;28;20036;-74
2022/04/02 00:38:11;;;;;;;53.00;37.27;;;;;;;0.51;73.32;101353.81;5276001;28;20012;-75
2022/04/02 00:40:42;;;;;;;12.00;5.83;;;;;;;0.50;72.81;101350.41;5278192;28;20028;-75
2022/04/02 00:43:22;;;;;;;10.70;7.70;;;;;;;0.49;73.29;101347.78;5272856;28;20020;-74
2022/04/02 00:45:56;;;;;;;15.25;9.80;;;;;;;0.50;72.36;101352.06;5256921;28;20069;-77
2022/04/02 00:48:27;;;;;;;7.78;5.40;;;;;;;0.54;71.76;101356.50;5261967;28;20021;-76
2022/04/02 00:51:00;;;;;;;7.47;4.90;;;;;;;0.51;71.88;101352.13;5277500;28;20066;-76
2022/04/02 00:53:36;;;;;;;8.52;5.82;;;;;;;0.52;72.04;101361.56;5271778;28;20021;-76
2022/04/02 00:56:07;;;;;;;11.38;3.75;;;;;;;0.49;72.39;101353.75;5256336;28;20103;-75
2022/04/02 00:58:39;;;;;;;20.67;10.20;;;;;;;0.47;72.68;101347.72;5257291;28;20025;-75
2022/04/02 01:01:10;;;;;;;9.23;5.33;;;;;;;0.45;73.06;101353.59;5256932;28;20029;-78
2022/04/02 01:03:43;;;;;;;9.97;6.33;;;;;;;0.45;72.99;101356.16;5260385;28;20041;-76
2022/04/02 01:06:14;;;;;;;9.23;5.35;;;;;;;0.44;72.82;101351.84;5256707;28;20060;-77
2022/04/02 01:08:46;;;;;;;10.50;6.13;;;;;;;0.45;73.12;101356.16;5255961;28;20060;-75
2022/04/02 01:11:18;;;;;;;9.07;3.47;;;;;;;0.43;72.75;101361.22;5257016;28;20025;-78
2022/04/02 01:13:50;;;;;;;7.73;4.50;;;;;;;0.46;72.16;101353.66;5266636;28;20428;-75
2022/04/02 01:16:21;;;;;;;16.40;8.93;;;;;;;0.50;72.24;101359.75;5277475;28;20166;-75
2022/04/02 01:18:52;;;;;;;6.80;5.23;;;;;;;0.49;72.50;101363.16;5266179;28;20078;-78
2022/04/02 01:21:26;;;;;;;10.23;5.33;;;;;;;0.43;72.67;101352.66;5267961;28;20091;-76
2022/04/02 01:23:59;;;;;;;11.77;6.88;;;;;;;0.39;73.50;101358.47;5256240;28;20029;-76
2022/04/02 01:26:31;;;;;;;12.32;6.50;;;;;;;0.35;72.75;101354.94;5257905;28;20032;-75
2022/04/02 01:29:03;;;;;;;13.27;6.90;;;;;;;0.34;73.50;101356.63;5256337;28;20082;-78
2022/04/02 01:31:34;;;;;;;7.00;4.45;;;;;;;0.32;72.86;101360.84;5256229;28;20020;-77
2022/04/02 01:34:06;;;;;;;17.40;8.67;;;;;;;0.31;73.21;101355.66;5256305;28;20098;-74
2022/04/02 01:36:37;;;;;;;11.07;5.27;;;;;;;0.28;72.90;101351.25;5258374;28;20021;-75
2022/04/02 01:39:08;;;;;;;12.10;8.23;;;;;;;0.29;72.36;101347.91;5276950;28;20036;-78
2022/04/02 01:41:40;;;;;;;9.73;4.33;;;;;;;0.29;72.32;101349.56;5274544;28;20035;-75
2022/04/02 01:44:11;;;;;;;10.93;6.20;;;;;;;0.33;72.15;101348.88;5257336;28;20101;-78
2022/04/02 01:46:43;;;;;;;25.43;13.93;;;;;;;0.32;71.42;101347.13;5260336;28;20136;-76
2022/04/02 01:49:14;;;;;;;11.23;6.13;;;;;;;0.32;71.72;101349.69;5256402;28;20033;-78
2022/04/02 01:51:45;;;;;;;9.67;4.13;;;;;;;0.32;71.41;101352.25;5262588;28;20032;-75
2022/04/02 01:54:19;;;;;;;7.67;4.83;;;;;;;0.29;72.02;101355.59;5277201;28;20448;-76
2022/04/02 01:56:51;;;;;;;10.50;3.72;;;;;;;0.28;72.44;101351.25;5269824;28;20028;-74
2022/04/02 01:59:22;;;;;;;6.40;3.70;;;;;;;0.26;72.62;101365.72;5276780;28;20054;-78
2022/04/02 02:01:54;;;;;;;9.40;5.13;;;;;;;0.26;72.13;101367.41;5270503;28;20040;-75
2022/04/02 02:04:27;;;;;;;12.48;7.10;;;;;;;0.25;72.13;101370.78;5255663;28;20049;-74
2022/04/02 02:06:58;;;;;;;8.13;3.88;;;;;;;0.20;72.92;101369.75;5262266;28;20032;-73
2022/04/02 02:09:30;;;;;;;7.33;3.40;;;;;;;0.15;71.88;101379.81;5276976;28;20033;-75
2022/04/02 02:12:02;;;;;;;6.23;3.50;;;;;;;0.17;71.60;101370.50;5269512;28;20029;-77
2022/04/02 02:14:34;;;;;;;12.13;6.90;;;;;;;0.15;71.25;101370.44;5255566;28;20029;-74
2022/04/02 02:17:05;;;;;;;5.57;3.10;;;;;;;0.11;71.08;101372.81;5256216;28;20109;-76
2022/04/02 02:19:37;;;;;;;7.47;3.33;;;;;;;0.08;72.78;101367.56;5255806;28;20116;-78
2022/04/02 02:22:08;;;;;;;11.43;6.13;;;;;;;0.06;72.51;101367.50;5256142;28;20033;-76
2022/04/02 02:24:40;;;;;;;24.10;12.93;;;;;;;0.00;73.25;101377.53;5255576;28;20112;-79
2022/04/02 02:27:11;;;;;;;7.03;3.70;;;;;;;-0.01;73.35;101376.63;5261463;28;20020;-75
2022/04/02 02:29:42;;;;;;;6.60;3.93;;;;;;;-0.07;73.53;101380.66;5276242;28;20034;-76
2022/04/02 02:32:14;;;;;;;9.93;5.07;;;;;;;-0.09;73.73;101384.84;5269533;28;20025;-74
2022/04/02 02:37:35;;;;;;;17.38;8.68;;;;;;;-0.10;73.51;101380.53;5255893;28;20037;-74
2022/04/02 02:40:08;;;;;;;19.00;9.90;;;;;;;-0.08;72.57;101391.69;5255746;28;20021;-75
2022/04/02 02:42:41;;;;;;;11.10;4.57;;;;;;;-0.07;72.55;101389.19;5255546;28;20520;-76
2022/04/02 02:45:12;;;;;;;;;;;;;;;-0.06;72.25;101385.84;5261070;28;20050;-75
2022/04/02 02:47:45;;;;;;;6.43;2.88;;;;;;;-0.03;71.90;101388.53;5276489;28;19999;-77
2022/04/02 02:50:17;;;;;;;;;;;;;;;-0.06;71.99;101383.28;5276445;28;20039;-75
2022/04/02 02:52:49;;;;;;;6.40;3.00;;;;;;;-0.05;72.40;101381.56;5276625;28;19912;-74
2022/04/02 02:55:20;;;;;;;7.27;3.20;;;;;;;-0.09;72.42;101385.72;5270536;28;20094;-76
2022/04/02 02:57:52;;;;;;;10.63;6.40;;;;;;;-0.12;71.96;101384.72;5237234;28;20091;-76
2022/04/02 03:00:23;;;;;;;6.93;3.60;;;;;;;-0.09;72.11;101388.28;5259826;28;20545;-74
2022/04/02 03:02:55;;;;;;;5.03;2.83;;;;;;;-0.10;72.47;101388.22;5276180;28;20467;-74
2022/04/02 03:05:26;;;;;;;7.30;4.13;;;;;;;-0.14;72.60;101394.03;5270835;28;20145;-77
2022/04/02 03:07:58;;;;;;;7.00;2.83;;;;;;;-0.16;73.05;101382.84;5256217;28;20041;-74
2022/04/02 03:10:30;;;;;;;5.97;2.93;;;;;;;-0.18;72.77;101385.34;5257113;28;20022;-74
2022/04/02 03:13:01;;;;;;;6.20;3.17;;;;;;;-0.20;73.06;101381.84;5255779;28;20305;-76
2022/04/02 03:15:32;;;;;;;4.90;2.97;;;;;;;-0.22;73.12;101388.59;5256538;28;20044;-74
2022/04/02 03:18:05;;;;;;;5.67;3.20;;;;;;;-0.19;72.80;101391.28;5258358;28;20036;-75
2022/04/02 03:20:37;;;;;;;7.78;3.85;;;;;;;-0.22;73.47;101386.03;5261497;28;20078;-75
2022/04/02 03:23:09;;;;;;;9.63;3.65;;;;;;;-0.24;73.26;101385.97;5258943;28;20033;-76
2022/04/02 03:25:41;;;;;;;6.37;2.90;;;;;;;-0.24;72.75;101387.63;5258799;28;20082;-77
2022/04/02 03:28:12;;;;;;;5.27;3.03;;;;;;;-0.24;73.00;101396.22;5259890;28;20052;-78
2022/04/02 03:30:44;;;;;;;6.50;3.23;;;;;;;-0.23;72.99;101392.81;5259498;28;20025;-74
2022/04/02 03:33:16;;;;;;;4.43;2.97;;;;;;;-0.26;73.56;101389.28;5259231;28;20029;-75
2022/04/02 03:35:48;;;;;;;5.68;2.90;;;;;;;-0.26;73.43;101386.72;5258739;28;20947;-75
2022/04/02 03:38:19;;;;;;;4.33;2.80;;;;;;;-0.25;73.90;101388.47;5258451;28;20061;-77
2022/04/02 03:40:50;;;;;;;8.47;3.27;;;;;;;-0.30;73.91;101393.41;5239488;28;20127;-74
2022/04/02 03:43:22;;;;;;;8.63;3.73;;;;;;;-0.32;74.75;101384.78;5258624;28;20032;-77
2022/04/02 03:47:07;;;;;;;7.00;2.93;;;;;;;-0.30;73.67;101392.53;5258255;28;20021;-78
2022/04/02 03:48:45;;;;;;;5.30;2.75;;;;;;;-0.31;73.60;101401.03;5258592;28;20037;-75
2022/04/02 03:51:17;;;;;;;8.83;3.20;;;;;;;-0.31;73.59;101401.88;5258627;28;20033;-74
2022/04/02 03:53:49;;;;;;;;;;;;;;;-0.29;73.53;101407.97;5258956;28;20435;-75
2022/04/02 03:56:20;;;;;;;4.85;2.53;;;;;;;-0.31;74.26;101413.84;5258010;28;19917;-77
2022/04/02 03:58:51;;;;;;;6.37;3.17;;;;;;;-0.33;74.43;101411.19;5258250;28;20495;-74
2022/04/02 04:01:23;;;;;;;5.20;3.20;;;;;;;-0.34;74.27;101418.81;5258220;28;20021;-78
2022/04/02 04:03:54;;;;;;;5.10;3.40;;;;;;;-0.39;74.94;101410.94;5239901;28;20543;-76
2022/04/02 04:06:25;;;;;;;6.17;3.27;;;;;;;-0.39;74.77;101418.63;5257977;28;20029;-76
2022/04/02 04:08:58;;;;;;;5.57;3.23;;;;;;;-0.41;74.72;101418.56;5257771;28;20594;-74
2022/04/02 04:11:29;;;;;;;5.18;3.58;;;;;;;-0.42;74.67;101415.94;5258177;28;20021;-75
2022/04/02 04:14:01;;;;;;;8.80;3.83;;;;;;;-0.46;75.13;101419.19;5257501;28;20072;-75
2022/04/02 04:16:32;;;;;;;7.40;3.20;;;;;;;-0.46;75.19;101426.88;5239148;28;20521;-74
2022/04/02 04:19:04;;;;;;;7.07;3.23;;;;;;;-0.50;75.21;101420.75;5257726;28;20120;-76
2022/04/02 04:21:35;;;;;;;6.50;3.20;;;;;;;-0.50;75.82;101432.66;5257815;28;20059;-76
2022/04/02 04:24:07;;;;;;;5.60;3.57;;;;;;;-0.51;75.62;101434.38;5257181;28;20080;-77
2022/04/02 04:26:39;;;;;;;5.30;3.47;;;;;;;-0.55;75.88;101435.03;5257713;28;20064;-77
2022/04/02 04:29:11;;;;;;;6.23;3.30;;;;;;;-0.54;75.80;101433.38;5256840;28;20511;-77
2022/04/02 04:31:42;;;;;;;3.47;2.80;;;;;;;-0.56;75.50;101425.63;5257223;28;20620;-79
2022/04/02 04:34:14;;;;;;;5.23;2.83;;;;;;;-0.55;75.64;101427.34;5257582;28;20021;-76
2022/04/02 04:36:45;;;;;;;7.63;3.20;;;;;;;-0.54;75.47;101430.81;5257625;28;20076;-78
2022/04/02 04:39:16;;;;;;;4.77;2.90;;;;;;;-0.56;75.71;101431.59;5258072;28;20061;-76
2022/04/02 04:41:47;;;;;;;8.27;3.83;;;;;;;-0.57;75.58;101440.09;5257427;28;20024;-76
2022/04/02 04:44:19;;;;;;;6.33;3.30;;;;;;;-0.62;75.60;101438.16;5257291;28;20032;-77
2022/04/02 04:46:50;;;;;;;4.23;3.10;;;;;;;-0.62;75.63;101451.81;5256794;28;20024;-76
2022/04/02 04:49:21;;;;;;;6.93;3.33;;;;;;;-0.65;75.94;101450.81;5257064;28;20035;-75
2022/04/02 04:51:53;;;;;;;7.57;3.07;;;;;;;-0.68;76.08;101454.09;5256475;28;20496;-76
2022/04/02 04:54:24;;;;;;;6.10;3.10;;;;;;;-0.68;75.94;101455.81;5257106;28;20064;-76
2022/04/02 04:56:56;;;;;;;8.43;3.33;;;;;;;-0.68;75.22;101458.34;5257223;28;20361;-74
2022/04/02 04:59:27;;;;;;;5.73;3.17;;;;;;;-0.71;75.37;101466.78;5257176;28;20033;-75
2022/04/02 05:01:58;;;;;;;7.00;3.20;;;;;;;-0.70;74.95;101480.47;5256685;28;20103;-76
2022/04/02 05:04:30;;;;;;;6.90;4.30;;;;;;;-0.71;75.43;101473.59;5256479;28;20045;-78
2022/04/02 05:07:03;;;;;;;4.43;2.97;;;;;;;-0.73;75.57;101474.38;5256671;28;20172;-74
2022/04/02 05:09:34;;;;;;;5.25;2.92;;;;;;;-0.75;75.76;101476.00;5256731;28;20276;-75
2022/04/02 05:12:06;;;;;;;4.60;2.97;;;;;;;-0.73;75.73;101486.31;5257593;28;20029;-81
2022/04/02 05:14:38;;;;;;;9.07;3.08;;;;;;;-0.72;75.35;101482.97;5257838;28;20036;-76
2022/04/02 05:17:10;;;;;;;5.83;2.93;;;;;;;-0.73;75.28;101476.06;5257802;28;20025;-80
2022/04/02 05:19:41;;;;;;;4.15;2.55;;;;;;;-0.68;75.38;101489.09;5257476;28;20128;-75
2022/04/02 05:22:13;;;;;;;6.37;2.80;;;;;;;-0.60;73.86;101486.03;5257412;28;20025;-76
2022/04/02 05:24:44;;;;;;;6.57;3.20;;;;;;;-0.62;74.13;101489.34;5257238;28;20083;-76
2022/04/02 05:27:15;;;;;;;7.13;3.27;;;;;;;-0.60;74.40;101501.41;5257413;28;20028;-78
2022/04/02 05:29:47;;;;;;;6.03;2.80;;;;;;;-0.58;74.55;101501.47;5256438;28;20043;-78
2022/04/02 05:32:18;;;;;;;6.57;3.63;;;;;;;-0.54;74.60;101508.50;5256678;28;20127;-77
2022/04/02 05:34:49;;;;;;;6.47;2.93;;;;;;;-0.50;73.77;101512.97;5256243;28;20033;-75
2022/04/02 05:37:21;;;;;;;4.97;3.47;;;;;;;-0.47;74.70;101518.19;5256756;28;20577;-76
2022/04/02 05:39:52;;;;;;;5.43;3.03;;;;;;;-0.44;74.36;101518.31;5256711;28;20021;-75
2022/04/02 05:42:25;;;;;;;8.43;3.03;;;;;;;-0.38;73.63;101522.84;5256681;28;20028;-77
2022/04/02 05:44:57;;;;;;;4.10;2.45;;;;;;;-0.35;73.79;101520.44;5256720;28;20226;-77
2022/04/02 05:47:39;;;;;;;5.20;3.37;;;;;;;-0.31;73.63;101526.56;5256746;28;20028;-75
2022/04/02 05:50:11;;;;;;;5.93;3.17;;;;;;;-0.28;73.61;101532.69;5256577;28;20033;-76
2022/04/02 05:52:43;;;;;;;6.28;3.10;;;;;;;-0.23;73.98;101536.31;5256763;28;20033;-80
2022/04/02 05:55:15;;;;;;;7.17;3.03;;;;;;;-0.18;73.05;101536.50;5256207;28;20040;-74
2022/04/02 05:57:46;;;;;;;6.37;3.90;;;;;;;-0.14;73.38;101534.97;5256329;28;20482;-76
2022/04/02 06:00:18;;;;;;;6.07;2.93;;;;;;;-0.12;73.61;101535.91;5255971;28;20033;-76
2022/04/02 06:02:49;;;;;;;6.37;3.63;;;;;;;-0.07;73.09;101544.66;5255429;28;20042;-75
2022/04/02 06:05:21;;;;;;;4.53;3.30;;;;;;;-0.01;73.26;101547.50;5254849;28;20060;-75
2022/04/02 06:07:52;;;;;;;5.73;2.97;;;;;;;0.05;73.19;101552.00;5255806;28;20045;-75
2022/04/02 06:10:24;;;;;;;6.83;2.97;;;;;;;0.10;72.37;101553.09;5255520;28;20028;-75
2022/04/02 06:12:55;;;;;;;6.97;2.70;;;;;;;0.16;72.82;101553.31;5255230;28;20135;-75
2022/04/02 06:15:27;;;;;;;8.10;3.40;;;;;;;0.20;72.67;101556.91;5255289;28;20068;-75
2022/04/02 06:17:58;;;;;;;4.90;3.38;;;;;;;0.27;72.50;101553.78;5237887;28;20051;-75
2022/04/02 06:20:30;;;;;;;6.60;3.13;;;;;;;0.31;72.64;101555.69;5254576;28;20427;-75
2022/04/02 06:23:01;;;;;;;6.00;3.07;;;;;;;0.33;72.30;101560.03;5247104;28;20100;-73
2022/04/02 06:25:33;;;;;;;6.67;3.30;;;;;;;0.35;72.80;101561.00;5247589;28;20025;-74
2022/04/02 06:28:05;;;;;;;8.53;3.07;;;;;;;0.42;71.87;101572.38;5246800;28;20025;-76
2022/04/02 06:30:37;;;;;;;6.03;3.17;;;;;;;0.47;72.63;101562.31;5253361;28;20157;-76
2022/04/02 06:33:08;;;;;;;4.83;3.30;;;;;;;0.52;72.09;101576.19;5254864;28;20569;-76
2022/04/02 06:35:40;;;;;;;5.90;3.00;;;;;;;0.54;71.94;101575.44;5253844;28;20432;-75
2022/04/02 06:38:13;;;;;;;4.70;2.97;;;;;;;0.54;72.03;101580.56;5254841;28;20121;-75
2022/04/02 06:40:44;;;;;;;4.65;2.85;;;;;;;0.59;71.55;101585.03;5252873;28;20558;-76
2022/04/02 06:43:15;;;;;;;4.73;3.33;;;;;;;0.66;71.90;101585.34;5253591;28;20029;-75
2022/04/02 06:45:47;;;;;;;5.83;3.20;;;;;;;0.71;71.73;101586.41;5255076;28;20025;-76
2022/04/02 06:48:19;;;;;;;7.20;3.33;;;;;;;0.79;71.83;101586.72;5256289;28;20028;-75
2022/04/02 06:50:52;;;;;;;8.13;3.50;;;;;;;0.85;71.50;101591.19;5255610;28;20032;-77
2022/04/02 06:53:23;;;;;;;5.00;3.17;;;;;;;0.88;70.48;101594.75;5239875;28;20086;-75
2022/04/02 06:55:54;;;;;;;5.57;3.40;;;;;;;0.95;70.49;101595.91;5255695;28;20107;-76
2022/04/02 06:58:30;;;;;;;5.33;3.20;;;;;;;0.95;70.71;101598.47;5246657;28;20076;-75
2022/04/02 07:01:02;;;;;;;8.05;3.47;;;;;;;1.05;69.82;101610.84;5245821;28;20463;-76
2022/04/02 07:03:37;;;;;;;8.60;3.73;;;;;;;1.12;70.02;101605.94;5237724;28;20049;-77
2022/04/02 07:06:08;;;;;;;7.18;2.90;;;;;;;1.15;69.37;101604.38;5237738;28;20032;-76
2022/04/02 07:08:39;;;;;;;5.10;3.10;;;;;;;1.27;69.13;101617.69;5238136;28;20030;-77
2022/04/02 07:11:11;;;;;;;11.20;4.00;;;;;;;1.30;69.47;101616.06;5238088;28;20331;-77
2022/04/02 07:13:42;;;;;;;5.93;3.17;;;;;;;1.33;69.54;101623.88;5238127;28;20021;-76
2022/04/02 07:16:16;;;;;;;5.67;3.27;;;;;;;1.43;69.43;101625.97;5237978;28;20029;-75
2022/04/02 07:18:48;;;;;;;6.72;3.60;;;;;;;1.45;69.00;101630.34;5237870;28;20041;-76
2022/04/02 07:21:22;;;;;;;7.57;3.40;;;;;;;1.40;67.74;101634.44;5237852;28;20051;-76
2022/04/02 07:23:55;;;;;;;8.55;3.15;;;;;;;1.54;69.35;101636.66;5220713;28;20045;-77
2022/04/02 07:26:31;;;;;;;5.63;2.92;;;;;;;1.62;67.73;101628.41;5237688;28;20108;-75
2022/04/02 07:29:07;;;;;;;7.15;2.92;;;;;;;1.66;68.32;101636.22;5237929;28;20047;-75
2022/04/02 07:31:39;;;;;;;5.20;2.78;;;;;;;1.71;68.39;101637.31;5219515;28;20408;-75
2022/04/02 07:34:11;;;;;;;7.30;3.33;;;;;;;1.72;66.74;101645.03;5237723;28;20029;-76
2022/04/02 07:37:07;;;;;;;11.77;3.60;;;;;;;1.81;67.57;101642.81;5219668;28;20338;-76
2022/04/02 07:40:08;;;;;;;7.57;3.25;;;;;;;2.03;67.65;101647.88;5237402;28;20129;-77
2022/04/02 07:43:07;;;;;;;6.22;3.67;;;;;;;2.11;67.62;101655.06;5237775;28;20033;-75
2022/04/02 07:45:41;;;;;;;9.20;3.17;;;;;;;2.28;66.44;101650.50;5237435;28;20036;-75
2022/04/02 07:48:15;;;;;;;6.93;2.80;;;;;;;2.40;65.70;101657.78;5237457;28;20430;-76
2022/04/02 07:50:48;;;;;;;5.03;2.75;;;;;;;2.69;66.07;101669.06;5237408;28;20112;-75
2022/04/02 07:53:22;;;;;;;4.78;3.03;;;;;;;2.79;64.32;101666.81;5219372;28;20037;-75
2022/04/02 07:55:57;;;;;;;7.43;3.72;;;;;;;2.95;64.28;101671.63;5237079;28;20396;-74
2022/04/02 07:58:31;;;;;;;6.00;3.28;;;;;;;2.87;64.58;101666.22;5236853;28;20384;-74
2022/04/02 08:01:04;;;;;;;7.35;3.17;;;;;;;2.98;63.65;101664.00;5236787;28;20051;-75
2022/04/02 08:03:37;;;;;;;6.03;2.83;;;;;;;3.10;62.69;101663.50;5236886;28;20515;-76
2022/04/02 08:06:09;;;;;;;6.38;3.50;;;;;;;3.15;63.70;101661.97;5236402;28;20405;-75
2022/04/02 08:08:42;;;;;;;6.67;3.47;;;;;;;3.23;63.13;101654.47;5236772;28;20037;-75
2022/04/02 08:11:17;;;;;;;7.72;3.83;;;;;;;3.17;61.91;101669.75;5237285;28;20439;-76
2022/04/02 08:13:48;;;;;;;7.50;3.20;;;;;;;3.35;62.62;101672.00;5236584;28;20026;-75
2022/04/02 08:16:21;;;;;;;6.53;3.50;;;;;;;3.58;62.39;101670.16;5236588;28;20471;-76
2022/04/02 08:18:56;;;;;;;7.32;3.55;;;;;;;3.57;62.05;101678.72;5236249;28;20381;-76
2022/04/02 08:21:27;;;;;;;8.00;3.35;;;;;;;3.71;61.38;101671.41;5236684;28;20029;-76
2022/04/02 08:24:01;;;;;;;6.37;3.93;;;;;;;3.80;61.68;101680.28;5236502;28;20095;-75
2022/04/02 08:26:44;;;;;;;4.95;3.40;;;;;;;3.90;60.77;101681.41;5236936;28;20482;-76
2022/04/02 08:29:20;;;;;;;4.90;3.15;;;;;;;3.82;60.55;101678.59;5236145;28;20529;-76
2022/04/02 08:32:14;;;;;;;5.95;3.38;;;;;;;3.79;60.95;101687.97;5236144;28;20025;-75
2022/04/02 08:34:48;;;;;;;;;;;;;;;4.04;61.06;101680.94;5236308;28;20025;-75
2022/04/02 08:37:28;;;;;;;5.97;3.00;;;;;;;4.13;60.83;101691.53;5236476;28;19924;-77
2022/04/02 08:40:36;;;;;;;7.60;3.53;;;;;;;4.38;61.02;101686.19;5235702;28;20018;-76
2022/04/02 08:43:26;;;;;;;4.97;3.30;;;;;;;4.49;60.81;101699.41;5236266;28;20029;-75
2022/04/02 08:46:31;;;;;;;6.40;3.00;;;;;;;4.64;59.63;101701.50;5236348;28;20038;-75
2022/04/02 08:49:22;;;;;;;7.45;3.38;;;;;;;4.64;60.06;101701.50;5236242;28;20029;-76
2022/04/02 08:52:18;;;;;;;6.60;3.20;;;;;;;4.74;58.96;101705.22;5235935;28;20029;-75
2022/04/02 08:55:15;;;;;;;6.60;3.75;;;;;;;4.61;59.64;101700.56;5235957;28;20026;-77
2022/04/02 08:58:01;;;;;;;6.38;3.38;;;;;;;4.28;60.13;101712.59;5236092;28;20025;-75
2022/04/02 09:00:41;;;;;;;6.45;3.38;;;;;;;4.06;59.97;101716.28;5235920;28;20025;-76
2022/04/02 09:03:45;;;;;;;7.10;3.60;;;;;;;4.18;60.38;101723.47;5236470;28;20488;-76
2022/04/02 09:06:38;;;;;;;6.22;3.50;;;;;;;3.97;60.72;101722.03;5237587;28;20407;-77
2022/04/02 09:09:47;;;;;;;5.40;3.33;;;;;;;4.28;60.16;101724.63;5236750;28;20048;-74
2022/04/02 09:12:24;;;;;;;5.63;3.78;;;;;;;4.34;60.08;101727.38;5236852;28;20473;-75
2022/04/02 09:15:08;;;;;;;6.05;3.67;;;;;;;4.81;59.43;101739.81;5237592;28;20029;-75
2022/04/02 09:17:59;;;;;;;9.45;3.85;;;;;;;5.09;59.15;101739.69;5236581;28;20471;-76
2022/04/02 09:20:36;;;;;;;5.63;3.90;;;;;;;5.81;58.69;101737.06;5236361;28;20025;-76
2022/04/02 09:23:11;;;;;;;11.77;4.93;;;;;;;5.78;56.89;101740.47;5235770;28;20068;-78
2022/04/02 09:26:02;;;;;;;5.45;3.65;;;;;;;5.61;57.39;101734.03;5235707;28;20029;-76
2022/04/02 09:28:44;;;;;;;5.72;3.88;;;;;;;5.59;56.50;101734.00;5234977;28;20088;-75
2022/04/02 09:31:50;;;;;;;8.45;4.65;;;;;;;5.64;56.57;101745.31;5235129;28;20033;-74
2022/04/02 09:34:59;;;;;;;6.95;3.83;;;;;;;5.34;58.45;101754.94;5235214;28;20025;-76
2022/04/02 09:37:45;;;;;;;7.18;4.00;;;;;;;5.36;57.02;101750.66;5235040;28;20056;-77
2022/04/02 09:40:18;;;;;;;6.45;3.75;;;;;;;5.15;58.20;101749.28;5234737;28;20087;-75
2022/04/02 09:42:56;;;;;;;7.68;3.70;;;;;;;5.00;57.59;101754.97;5234651;28;20026;-74
2022/04/02 09:45:38;;;;;;;4.47;3.13;;;;;;;4.71;57.90;101749.91;5235056;28;20025;-74
2022/04/02 09:48:27;;;;;;;5.32;3.35;;;;;;;4.53;57.13;101752.00;5235238;28;20091;-75
2022/04/02 09:51:02;;;;;;;6.05;3.78;;;;;;;4.74;58.93;101755.16;5235006;28;20418;-74
2022/04/02 09:53:41;;;;;;;7.63;3.65;;;;;;;5.63;56.96;101747.88;5235147;28;20033;-75
2022/04/02 09:56:22;;;;;;;6.13;3.22;;;;;;;7.08;53.48;101743.00;5234464;28;20033;-77
2022/04/02 09:59:06;;;;;;;5.15;3.17;;;;;;;7.72;51.58;101742.28;5235023;28;20451;-75
2022/04/02 10:01:46;;;;;;;6.82;3.30;;;;;;;8.55;47.88;101748.56;5235804;28;20029;-75
2022/04/02 10:04:37;;;;;;;8.65;3.78;;;;;;;8.45;47.25;101750.16;5235487;28;20025;-75
2022/04/02 10:07:47;;;;;;;5.53;3.60;;;;;;;8.84;48.92;101761.88;5235390;28;20041;-76
2022/04/02 10:10:26;;;;;;;8.60;3.40;;;;;;;9.18;45.92;101748.31;5171266;28;20051;-76
2022/04/02 10:12:57;;;;;;;6.38;3.50;;;;;;;9.17;45.53;101738.75;5170688;28;20035;-75
2022/04/02 10:15:31;;;;;;;7.63;4.30;;;;;;;10.41;43.62;101741.22;5171258;28;20045;-77
2022/04/02 10:18:03;;;;;;;6.90;3.80;;;;;;;10.95;42.88;101733.53;5171216;28;20038;-77
2022/04/02 10:20:35;;;;;;;5.75;3.35;;;;;;;11.76;40.11;101731.72;5171366;28;20042;-76
2022/04/02 10:23:19;;;;;;;6.85;3.65;;;;;;;12.18;39.91;101725.50;5191006;28;20034;-74
2022/04/02 10:26:16;;;;;;;6.10;3.38;;;;;;;11.27;41.60;101732.66;5194912;28;20094;-74
2022/04/02 10:28:54;;;;;;;5.45;3.25;;;;;;;10.12;42.49;101730.69;5185638;28;20085;-74
2022/04/02 10:31:37;;;;;;;5.35;3.30;;;;;;;7.83;44.11;101733.78;5191307;28;20928;-77
2022/04/02 10:34:21;;;;;;;8.20;3.70;;;;;;;7.56;46.29;101731.66;5188777;28;20414;-76
2022/04/02 10:37:00;;;;;;;9.25;3.97;;;;;;;6.74;48.79;101735.50;5193271;28;20490;-77
2022/04/02 10:39:36;;;;;;;8.13;3.60;;;;;;;6.49;52.25;101736.78;5194304;28;20421;-74
2022/04/02 10:42:11;;;;;;;9.10;4.25;;;;;;;5.99;55.58;101734.06;5194024;28;20243;-76
2022/04/02 10:44:58;;;;;;;7.43;3.60;;;;;;;5.66;56.15;101732.41;5192734;28;20030;-75
2022/04/02 10:47:30;;;;;;;6.00;3.80;;;;;;;5.04;56.10;101740.41;5238132;28;20045;-76
2022/04/02 10:50:08;;;;;;;8.05;3.95;;;;;;;5.09;56.61;101744.00;5258796;28;20021;-78
2022/04/02 10:52:41;;;;;;;6.30;3.88;;;;;;;5.00;57.14;101741.19;5257097;28;20493;-75
2022/04/02 10:55:15;;;;;;;;;;;;;;;5.21;57.60;101743.44;5259373;28;20029;-76
2022/04/02 10:57:47;;;;;;;5.18;3.35;;;;;;;4.98;59.33;101748.03;5255370;28;19966;-76
2022/04/02 11:00:19;;;;;;;5.70;3.83;;;;;;;4.85;57.46;101739.94;5253878;28;20112;-75
2022/04/02 11:03:01;;;;;;;8.23;4.43;;;;;;;4.73;57.79;101744.78;5255941;28;20109;-75
2022/04/02 11:05:37;;;;;;;5.57;3.92;;;;;;;4.79;59.02;101741.50;5251746;28;20075;-75
2022/04/02 11:08:12;;;;;;;10.52;3.95;;;;;;;4.77;58.52;101743.19;5250889;28;20089;-75
2022/04/02 11:10:47;;;;;;;5.90;3.70;;;;;;;4.67;59.95;101748.09;5240318;28;20123;-76
2022/04/02 11:13:29;;;;;;;7.93;4.15;;;;;;;4.48;58.90;101743.25;5238655;28;20118;-76
2022/04/02 11:16:02;;;;;;;7.70;4.57;;;;;;;4.31;57.28;101742.78;5238030;28;20083;-75
2022/04/02 11:18:33;;;;;;;9.00;4.38;;;;;;;4.51;57.13;101740.78;5238172;28;20471;-75
2022/04/02 11:21:08;;;;;;;5.40;3.57;;;;;;;4.48;57.21;101733.78;5238027;28;20045;-73
2022/04/02 11:23:55;;;;;;;8.23;3.72;;;;;;;4.73;56.84;101726.69;5237640;28;20084;-75
2022/04/02 11:26:28;;;;;;;6.68;3.90;;;;;;;4.92;55.16;101728.06;5248773;28;20090;-75
2022/04/02 11:29:02;;;;;;;7.80;4.32;;;;;;;4.97;53.70;101728.19;5256903;28;20123;-74
2022/04/02 11:31:35;;;;;;;9.35;3.50;;;;;;;5.06;54.17;101734.44;5257734;28;20021;-76
2022/04/02 11:34:12;;;;;;;4.32;2.80;;;;;;;5.61;52.32;101726.28;5258011;28;20029;-74
2022/04/02 11:36:46;;;;;;;6.93;3.40;;;;;;;6.05;52.03;101731.56;5258944;28;20051;-75
2022/04/02 11:39:39;;;;;;;4.45;3.28;;;;;;;6.20;51.69;101733.63;5259645;28;20083;-76
2022/04/02 11:42:13;;;;;;;;;;;;;;;6.41;51.20;101738.34;5259869;28;20036;-74
2022/04/02 11:44:51;;;;;;;4.65;2.80;;;;;;;5.72;50.95;101729.09;5259951;28;19916;-75
2022/04/02 11:47:28;;;;;;;7.88;3.28;;;;;;;5.53;49.05;101736.44;5260014;28;20684;-75
2022/04/02 11:50:08;;;;;;;5.57;2.60;;;;;;;5.55;49.57;101744.22;5258758;28;20411;-75
2022/04/02 11:52:52;;;;;;;6.55;3.00;;;;;;;5.96;49.50;101742.59;5258505;28;20033;-76
2022/04/02 11:55:25;;;;;;;5.82;3.00;;;;;;;5.86;47.81;101738.06;5258292;28;20439;-75
2022/04/02 11:58:03;;;;;;;4.35;2.40;;;;;;;7.25;43.95;101736.38;5258011;28;20083;-75
2022/04/02 12:00:37;;;;;;;3.70;2.50;;;;;;;9.36;39.94;101735.44;5258916;28;20032;-76
2022/04/02 12:03:27;;;;;;;7.03;2.60;;;;;;;10.16;40.44;101741.13;5258462;28;20427;-77
2022/04/02 12:06:10;;;;;;;6.43;3.00;;;;;;;11.25;37.59;101729.19;5258411;28;20037;-76
2022/04/02 12:08:43;;;;;;;6.93;2.20;;;;;;;11.52;33.93;101724.81;5258299;28;20128;-75
2022/04/02 12:11:23;;;;;;;3.95;2.20;;;;;;;9.41;36.03;101733.75;5258009;28;20033;-75
2022/04/02 12:13:55;;;;;;;5.43;2.50;;;;;;;8.53;38.26;101747.66;5258359;28;20091;-75